Country
Station

 

Weather  for  Rennes  -  France    France

  
27 °C (81 °F)
    
 
 

Current METAR for Rennes is :

LFRN 191700Z AUTO 21009KT 190V260 9999 FEW041 27/16 Q1012 NOSIG

 

This is a report for Rennes - France.
 
The report was made 20 minutes ago, at 17:00 UTC .
The wind was blowing at a speed of 4.6 meters per second (10.4 miles per hour) from south/southwest (210°), varying between south (190°) and west (260°).
 
The temperature was 27 °C (81 °F), with a dew-point at 16 °C (61 °F).
The temperature felt like 28 °C (82 °F).
 
The atmospheric pressure was 1012 hPa (29.88 inHg).
The relative humidity was 51.0%.
 
There were a few clouds at a height of 1250 meters (4100 feet).
 
The overall visibility was greater than 10 kilometers (6.2 miles).
 

 
 
 
 

Country :   A   B   C   D   E   F   G   H   I   J   K   L   M   N   O   P   Q   R   S   T   U   V   W   Y   Z

 

Site Info  |  Disclaimer  |  Credits  |  Privacy
Contact us  |  Add to favorites
© 2013-2019 METARs - All rights reserved